createdAt,value
2023-02-26T00:02:21.987Z,0.89
2023-02-26T00:07:29.547Z,0.89
2023-02-26T00:12:39.043Z,0.91
2023-02-26T00:17:57.908Z,0.93
2023-02-26T00:23:07.194Z,0.94
2023-02-26T00:28:16.854Z,0.93
2023-02-26T00:33:25.620Z,0.97
2023-02-26T00:38:36.228Z,0.97
2023-02-26T00:43:44.960Z,0.94
2023-02-26T00:48:59.575Z,0.91
2023-02-26T00:54:15.146Z,0.88
2023-02-26T00:59:24.440Z,0.89
2023-02-26T01:04:32.979Z,0.90
2023-02-26T01:09:41.516Z,0.89
2023-02-26T01:14:50.727Z,0.87
2023-02-26T01:20:02.696Z,0.85
2023-02-26T01:25:13.789Z,0.83
2023-02-26T01:30:24.752Z,0.80
2023-02-26T01:35:48.706Z,0.71
2023-02-26T01:41:28.913Z,0.59
2023-02-26T01:46:46.489Z,0.53
2023-02-26T01:51:55.501Z,0.47
2023-02-26T01:57:07.866Z,0.43
2023-02-26T02:02:18.898Z,0.43
2023-02-26T02:07:27.033Z,0.48
2023-02-26T02:12:41.716Z,0.52
2023-02-26T02:18:00.175Z,0.53
2023-02-26T02:23:16.882Z,0.54
2023-02-26T02:28:39.368Z,0.53
2023-02-26T02:33:53.207Z,0.52
2023-02-26T02:39:06.538Z,0.51
2023-02-26T02:44:20.594Z,0.49
2023-02-26T02:49:33.128Z,0.49
2023-02-26T02:54:45.312Z,0.49
2023-02-26T02:59:57.587Z,0.50
2023-02-26T03:05:05.871Z,0.50
2023-02-26T03:10:15.050Z,0.51
2023-02-26T03:15:40.983Z,0.51
2023-02-26T03:20:55.385Z,0.49
2023-02-26T03:26:12.681Z,0.44
2023-02-26T03:31:24.749Z,0.40
2023-02-26T03:36:39.381Z,0.37
2023-02-26T03:41:52.171Z,0.37
2023-02-26T03:47:03.159Z,0.38
2023-02-26T03:52:10.878Z,0.34
2023-02-26T03:57:18.473Z,0.27
2023-02-26T04:02:32.301Z,0.20
2023-02-26T04:07:40.756Z,0.15
2023-02-26T04:12:48.064Z,0.09
2023-02-26T04:17:55.379Z,0.03
2023-02-26T04:23:03.399Z,-0.02
2023-02-26T04:28:10.715Z,-0.04
2023-02-26T04:33:18.378Z,-0.07
2023-02-26T04:38:25.611Z,-0.10
2023-02-26T04:43:33.464Z,-0.13
2023-02-26T04:48:40.985Z,-0.13
2023-02-26T04:53:48.246Z,-0.14
2023-02-26T04:58:55.734Z,-0.14
2023-02-26T05:04:02.809Z,-0.16
2023-02-26T05:09:10.516Z,-0.19
2023-02-26T05:14:18.898Z,-0.20
2023-02-26T05:19:26.093Z,-0.20
2023-02-26T05:24:31.654Z,-0.21
2023-02-26T05:29:38.815Z,-0.24
2023-02-26T05:34:44.246Z,-0.27
2023-02-26T05:39:51.641Z,-0.29
2023-02-26T05:45:00.421Z,-0.32
2023-02-26T05:50:09.553Z,-0.38
2023-02-26T05:55:17.807Z,-0.44
2023-02-26T06:00:27.021Z,-0.46
2023-02-26T06:05:34.123Z,-0.46
2023-02-26T06:10:41.525Z,-0.46
2023-02-26T06:15:50.810Z,-0.45
2023-02-26T06:20:57.968Z,-0.50
2023-02-26T06:26:03.557Z,-0.56
2023-02-26T06:31:11.414Z,-0.67
2023-02-26T06:36:19.146Z,-0.78
2023-02-26T06:41:26.979Z,-0.79
2023-02-26T06:46:34.908Z,-0.72
2023-02-26T06:51:42.327Z,-0.58
2023-02-26T06:56:49.618Z,-0.51
2023-02-26T07:01:57.787Z,-0.45
2023-02-26T07:07:05.401Z,-0.41
2023-02-26T07:12:13.068Z,-0.36
2023-02-26T07:17:21.878Z,-0.28
2023-02-26T07:22:29.205Z,-0.24
2023-02-26T07:27:36.913Z,-0.19
2023-02-26T07:32:44.331Z,-0.11
2023-02-26T07:37:52.360Z,-0.09
2023-02-26T07:42:59.741Z,-0.09
2023-02-26T07:48:07.368Z,-0.12
2023-02-26T07:53:14.584Z,-0.12
2023-02-26T07:58:21.143Z,-0.17
2023-02-26T08:03:28.752Z,-0.23
2023-02-26T08:08:36.112Z,-0.27
2023-02-26T08:13:43.724Z,-0.30
2023-02-26T08:18:50.913Z,-0.31
2023-02-26T08:23:56.472Z,-0.32
2023-02-26T08:29:03.933Z,-0.35
2023-02-26T08:34:09.778Z,-0.30
2023-02-26T08:39:17.750Z,-0.28
2023-02-26T08:44:25.045Z,-0.27
2023-02-26T08:49:32.738Z,-0.18
2023-02-26T08:54:39.963Z,-0.06
2023-02-26T08:59:47.682Z,0.01
2023-02-26T09:04:55.245Z,0.10
2023-02-26T09:10:02.906Z,0.14
2023-02-26T09:15:14.507Z,0.13
2023-02-26T09:20:25.134Z,0.18
2023-02-26T09:25:32.501Z,0.27
2023-02-26T09:30:39.874Z,0.37
2023-02-26T09:35:48.828Z,0.44
2023-02-26T09:40:59.569Z,0.45
2023-02-26T09:46:13.206Z,0.46
2023-02-26T09:51:24.074Z,0.50
2023-02-26T09:56:38.404Z,0.46
2023-02-26T10:01:53.607Z,0.39
2023-02-26T10:07:12.846Z,0.34
2023-02-26T10:12:23.113Z,0.32
2023-02-26T10:17:42.158Z,0.38
2023-02-26T10:27:09.840Z,0.58
2023-02-26T10:32:26.950Z,0.65
2023-02-26T10:37:45.591Z,0.74
2023-02-26T10:43:02.204Z,0.91
2023-02-26T10:48:20.570Z,0.98
2023-02-26T10:53:32.197Z,1.06
2023-02-26T10:58:40.205Z,1.27
2023-02-26T11:03:49.899Z,1.54
2023-02-26T11:08:58.704Z,1.61
2023-02-26T11:19:42.216Z,1.56
2023-02-26T11:24:52.070Z,1.31
2023-02-26T11:30:04.245Z,0.93
2023-02-26T11:35:15.257Z,0.66
2023-02-26T11:40:32.520Z,0.56
2023-02-26T11:45:44.852Z,0.48
2023-02-26T11:50:57.871Z,0.37
2023-02-26T11:56:11.296Z,0.26
2023-02-26T12:01:19.551Z,0.18
2023-02-26T12:06:28.593Z,0.16
2023-02-26T12:12:01.948Z,0.16
2023-02-26T12:17:23.971Z,0.25
2023-02-26T12:22:44.362Z,0.47
2023-02-26T12:28:04.589Z,0.59
2023-02-26T12:33:26.164Z,0.57
2023-02-26T12:38:44.896Z,0.60
2023-02-26T12:43:54.647Z,0.69
2023-02-26T12:49:29.103Z,0.60
2023-02-26T12:54:51.139Z,0.55
2023-02-26T13:00:25.186Z,0.54
2023-02-26T13:05:46.298Z,0.62
2023-02-26T13:11:04.979Z,0.64
2023-02-26T13:21:16.667Z,0.54
2023-02-26T13:26:26.832Z,0.27
2023-02-26T13:31:39.159Z,0.09
2023-02-26T13:36:47.785Z,0.04
2023-02-26T13:42:04.801Z,0.02
2023-02-26T13:47:36.290Z,-0.03
2023-02-26T13:52:54.927Z,-0.08
2023-02-26T13:58:17.494Z,-0.03
2023-02-26T14:03:37.468Z,-0.06
2023-02-26T14:08:55.050Z,-0.08
2023-02-26T14:14:18.076Z,-0.02
2023-02-26T14:19:30.963Z,0.07
2023-02-26T14:24:41.430Z,0.13
2023-02-26T14:30:04.218Z,0.17
2023-02-26T14:35:17.037Z,0.15
2023-02-26T14:40:26.521Z,0.06
2023-02-26T14:45:38.209Z,0.03
2023-02-26T14:50:59.652Z,0.00
2023-02-26T14:56:16.193Z,0.04
2023-02-26T15:01:50.040Z,0.14
2023-02-26T15:07:16.601Z,0.21
2023-02-26T15:12:36.326Z,0.22
2023-02-26T15:17:57.483Z,0.16
2023-02-26T15:27:33.883Z,-0.02
2023-02-26T15:32:41.486Z,-0.15
2023-02-26T15:37:54.393Z,-0.26
2023-02-26T15:43:03.824Z,-0.34
2023-02-26T15:48:15.847Z,-0.41
2023-02-26T15:53:30.439Z,-0.49
2023-02-26T15:58:43.536Z,-0.51
2023-02-26T16:03:53.945Z,-0.50
2023-02-26T16:09:03.256Z,-0.54
2023-02-26T16:14:17.071Z,-0.63
2023-02-26T16:19:31.825Z,-0.68
2023-02-26T16:24:39.664Z,-0.70
2023-02-26T16:29:57.984Z,-0.73
2023-02-26T16:35:14.670Z,-0.72
2023-02-26T16:40:27.905Z,-0.67
2023-02-26T16:45:51.228Z,-0.63
2023-02-26T16:51:03.845Z,-0.61
2023-02-26T16:56:16.894Z,-0.56
2023-02-26T17:01:26.760Z,-0.56
2023-02-26T17:06:39.288Z,-0.59
2023-02-26T17:11:49.407Z,-0.61
2023-02-26T17:16:56.861Z,-0.62
2023-02-26T17:22:05.784Z,-0.68
2023-02-26T17:27:19.024Z,-0.73
2023-02-26T17:32:28.947Z,-0.75
2023-02-26T17:37:37.325Z,-0.75
2023-02-26T17:42:45.888Z,-0.72
2023-02-26T17:47:54.217Z,-0.68
2023-02-26T17:53:01.996Z,-0.70
2023-02-26T17:58:16.207Z,-0.71
2023-02-26T18:03:25.096Z,-0.70
2023-02-26T18:08:34.705Z,-0.64
2023-02-26T18:13:43.422Z,-0.61
2023-02-26T18:18:51.505Z,-0.52
2023-02-26T18:24:01.417Z,-0.42
2023-02-26T18:29:09.407Z,-0.38
2023-02-26T18:34:17.129Z,-0.40
2023-02-26T18:39:27.912Z,-0.43
2023-02-26T18:44:35.401Z,-0.49
2023-02-26T18:49:43.306Z,-0.53
2023-02-26T18:54:50.832Z,-0.57
2023-02-26T18:59:58.285Z,-0.58
2023-02-26T19:05:05.911Z,-0.58
2023-02-26T19:10:16.092Z,-0.58
2023-02-26T19:15:24.700Z,-0.54
2023-02-26T19:20:32.324Z,-0.53
2023-02-26T19:25:42.619Z,-0.52
2023-02-26T19:30:54.509Z,-0.47
2023-02-26T19:36:01.967Z,-0.41
2023-02-26T19:41:09.673Z,-0.39
2023-02-26T19:46:17.513Z,-0.41
2023-02-26T19:51:25.696Z,-0.44
2023-02-26T19:56:34.037Z,-0.43
2023-02-26T20:01:43.964Z,-0.45
2023-02-26T20:06:51.893Z,-0.49
2023-02-26T20:11:59.359Z,-0.51
2023-02-26T20:17:07.358Z,-0.53
2023-02-26T20:22:16.282Z,-0.52
2023-02-26T20:27:24.596Z,-0.51
2023-02-26T20:32:32.718Z,-0.53
2023-02-26T20:37:40.303Z,-0.57
2023-02-26T20:42:47.924Z,-0.59
2023-02-26T20:47:55.721Z,-0.63
2023-02-26T20:53:03.089Z,-0.59
2023-02-26T20:58:10.430Z,-0.57
2023-02-26T21:03:18.068Z,-0.57
2023-02-26T21:08:25.579Z,-0.58
2023-02-26T21:13:34.598Z,-0.59
2023-02-26T21:18:42.390Z,-0.59
2023-02-26T21:23:50.616Z,-0.58
2023-02-26T21:29:00.201Z,-0.56
2023-02-26T21:34:32.025Z,-0.53
2023-02-26T21:39:35.820Z,-0.53
2023-02-26T21:44:43.387Z,-0.56
2023-02-26T21:49:51.566Z,-0.57
2023-02-26T21:54:59.204Z,-0.57
2023-02-26T22:00:10.420Z,-0.58
2023-02-26T22:05:18.780Z,-0.53
2023-02-26T22:10:26.355Z,-0.46
2023-02-26T22:15:33.923Z,-0.46
2023-02-26T22:20:41.475Z,-0.47
2023-02-26T22:25:49.393Z,-0.50
2023-02-26T22:30:57.345Z,-0.52
2023-02-26T22:36:05.837Z,-0.52
2023-02-26T22:41:13.511Z,-0.52
2023-02-26T22:46:20.923Z,-0.54
2023-02-26T22:51:30.131Z,-0.55
2023-02-26T22:56:37.554Z,-0.56
2023-02-26T23:01:45.218Z,-0.58
2023-02-26T23:06:53.256Z,-0.60
2023-02-26T23:12:01.155Z,-0.57
2023-02-26T23:17:11.289Z,-0.55
2023-02-26T23:22:21.875Z,-0.54
2023-02-26T23:27:30.056Z,-0.53
2023-02-26T23:32:37.626Z,-0.50
2023-02-26T23:37:45.123Z,-0.50
2023-02-26T23:52:45.946Z,-0.53
2023-02-26T23:57:54.999Z,-0.61
